createdAt,value
2018-04-30T00:00:34.841Z,16.9
2018-04-30T00:01:36.408Z,16.9
2018-04-30T00:02:37.962Z,16.9
2018-04-30T00:03:39.501Z,16.9
2018-04-30T00:04:40.972Z,17.0
2018-04-30T00:05:42.387Z,17.0
2018-04-30T00:06:43.829Z,16.9
2018-04-30T00:07:45.261Z,16.9
2018-04-30T00:08:46.721Z,16.9
2018-04-30T00:09:48.160Z,17.0
2018-04-30T00:10:49.637Z,17.0
2018-04-30T00:11:51.175Z,16.9
2018-04-30T00:12:52.675Z,16.9
2018-04-30T00:13:54.139Z,16.8
2018-04-30T00:14:55.658Z,16.7
2018-04-30T00:15:57.148Z,16.8
2018-04-30T00:16:58.586Z,16.8
2018-04-30T00:18:00.080Z,16.7
2018-04-30T00:19:01.569Z,16.7
2018-04-30T00:20:03.266Z,16.7
2018-04-30T00:21:07.008Z,16.6
2018-04-30T00:22:08.543Z,16.6
2018-04-30T00:23:12.814Z,16.5
2018-04-30T00:24:14.590Z,16.6
2018-04-30T00:25:16.091Z,16.5
2018-04-30T00:26:17.698Z,16.4
2018-04-30T00:27:19.278Z,16.5
2018-04-30T00:28:20.739Z,16.4
2018-04-30T00:29:22.192Z,16.4
2018-04-30T00:30:23.676Z,16.4
2018-04-30T00:31:25.147Z,16.3
2018-04-30T00:32:26.642Z,16.3
2018-04-30T00:33:28.143Z,16.3
2018-04-30T00:34:29.690Z,16.3
2018-04-30T00:35:31.196Z,16.3
2018-04-30T00:36:32.856Z,16.3
2018-04-30T00:37:34.311Z,16.4
2018-04-30T00:38:35.799Z,16.3
2018-04-30T00:39:37.353Z,16.3
2018-04-30T00:40:38.889Z,16.3
2018-04-30T00:41:40.377Z,16.3
2018-04-30T00:42:41.896Z,16.3
2018-04-30T00:43:43.417Z,16.2
2018-04-30T00:44:44.859Z,16.2
2018-04-30T00:45:46.340Z,16.1
2018-04-30T00:46:47.814Z,16.1
2018-04-30T00:47:49.364Z,16.1
2018-04-30T00:48:50.836Z,16.1
2018-04-30T00:49:52.312Z,16.2
2018-04-30T00:50:53.907Z,16.2
2018-04-30T00:51:55.455Z,16.1
2018-04-30T00:52:56.893Z,16.2
2018-04-30T00:53:58.438Z,16.1
2018-04-30T00:54:59.973Z,16.1
2018-04-30T00:56:01.432Z,16.2
2018-04-30T00:57:02.981Z,16.1
2018-04-30T00:58:04.514Z,16.1
2018-04-30T00:59:06.017Z,16.1
2018-04-30T01:00:07.524Z,16.1
2018-04-30T01:01:09.064Z,16.0
2018-04-30T01:02:10.590Z,15.9
2018-04-30T01:03:12.112Z,15.8
2018-04-30T01:04:13.684Z,15.8
2018-04-30T01:05:15.179Z,15.7
2018-04-30T01:06:16.674Z,15.7
2018-04-30T01:07:18.117Z,15.8
2018-04-30T01:08:19.546Z,15.7
2018-04-30T01:09:21.019Z,15.7
2018-04-30T01:10:22.511Z,15.6
2018-04-30T01:11:24.074Z,15.6
2018-04-30T01:12:25.509Z,15.7
2018-04-30T01:13:27.013Z,15.7
2018-04-30T01:14:28.554Z,15.7
2018-04-30T01:15:30.113Z,15.7
2018-04-30T01:16:31.543Z,15.7
2018-04-30T01:17:33.048Z,15.7
2018-04-30T01:18:34.555Z,15.6
2018-04-30T01:19:36.019Z,15.7
2018-04-30T01:20:37.463Z,15.7
2018-04-30T01:21:38.939Z,15.8
2018-04-30T01:22:40.433Z,15.7
2018-04-30T01:23:42.009Z,15.7
2018-04-30T01:24:43.705Z,15.7
2018-04-30T01:25:45.898Z,15.7
2018-04-30T01:26:47.582Z,15.7
2018-04-30T01:27:49.134Z,15.7
2018-04-30T01:28:50.717Z,15.7
2018-04-30T01:29:52.253Z,15.7
2018-04-30T01:30:54.617Z,15.7
2018-04-30T01:31:56.121Z,15.7
2018-04-30T01:32:57.628Z,15.6
2018-04-30T01:33:59.149Z,15.7
2018-04-30T01:35:00.718Z,15.6
2018-04-30T01:36:02.172Z,15.6
2018-04-30T01:37:03.688Z,15.4
2018-04-30T01:38:05.187Z,15.4
2018-04-30T01:39:06.673Z,15.4
2018-04-30T01:40:08.187Z,15.5
2018-04-30T01:41:09.712Z,15.3
2018-04-30T01:42:11.189Z,15.4
2018-04-30T01:43:12.659Z,15.3
2018-04-30T01:44:14.140Z,15.3
2018-04-30T01:45:15.590Z,15.3
2018-04-30T01:46:17.050Z,15.3
2018-04-30T01:47:18.549Z,15.3
2018-04-30T01:48:19.966Z,15.3
2018-04-30T01:49:21.520Z,15.3
2018-04-30T01:50:23.015Z,15.3
2018-04-30T01:51:24.580Z,15.3
2018-04-30T01:52:26.344Z,15.2
2018-04-30T01:53:27.782Z,15.2
2018-04-30T01:54:29.274Z,15.2
2018-04-30T01:55:30.732Z,15.1
2018-04-30T01:56:32.155Z,15.2
2018-04-30T01:57:33.681Z,15.1
2018-04-30T01:58:35.081Z,15.2
2018-04-30T01:59:36.511Z,15.1
2018-04-30T02:00:37.924Z,15.1
2018-04-30T02:01:39.333Z,15.0
2018-04-30T02:02:40.756Z,15.1
2018-04-30T02:03:42.169Z,15.1
2018-04-30T02:04:43.576Z,15.1
2018-04-30T02:05:44.982Z,15.0
2018-04-30T02:06:46.412Z,15.1
2018-04-30T02:07:47.868Z,15.0
2018-04-30T02:08:49.500Z,14.9
2018-04-30T02:09:50.911Z,15.0
2018-04-30T02:10:52.354Z,15.0
2018-04-30T02:11:53.805Z,15.0
2018-04-30T02:12:55.261Z,15.0
2018-04-30T02:13:56.748Z,14.9
2018-04-30T02:14:58.169Z,14.9
2018-04-30T02:15:59.632Z,14.9
2018-04-30T02:17:01.090Z,14.9
2018-04-30T02:18:02.550Z,14.9
2018-04-30T02:19:04.006Z,14.9
2018-04-30T02:20:05.429Z,14.9
2018-04-30T02:21:06.890Z,14.9
2018-04-30T02:22:08.356Z,14.9
2018-04-30T02:23:09.796Z,14.9
2018-04-30T02:24:11.252Z,14.9
2018-04-30T02:25:12.743Z,14.9
2018-04-30T02:26:14.184Z,14.9
2018-04-30T02:27:15.650Z,14.9
2018-04-30T02:28:17.123Z,14.8
2018-04-30T02:29:18.591Z,14.9
2018-04-30T02:30:20.036Z,14.8
2018-04-30T02:31:21.495Z,14.8
2018-04-30T02:32:22.927Z,14.8
2018-04-30T02:33:24.408Z,14.8
2018-04-30T02:34:25.986Z,14.8
2018-04-30T02:35:27.453Z,14.7
2018-04-30T02:36:28.903Z,14.7
2018-04-30T02:37:30.378Z,14.7
2018-04-30T02:38:31.838Z,14.7
2018-04-30T02:39:33.272Z,14.7
2018-04-30T02:40:34.734Z,14.6
2018-04-30T02:41:36.235Z,14.6
2018-04-30T02:42:37.684Z,14.6
2018-04-30T02:43:39.218Z,14.6
2018-04-30T02:44:40.701Z,14.6
2018-04-30T02:45:42.260Z,14.6
2018-04-30T02:46:43.735Z,14.5
2018-04-30T02:47:45.175Z,14.6
2018-04-30T02:48:46.669Z,14.5
2018-04-30T02:49:48.154Z,14.6
2018-04-30T02:50:49.606Z,14.5
2018-04-30T02:51:51.109Z,14.5
2018-04-30T02:52:52.605Z,14.6
2018-04-30T02:53:54.084Z,14.5
2018-04-30T02:54:55.521Z,14.4
2018-04-30T02:55:56.926Z,14.4
2018-04-30T02:56:58.371Z,14.6
2018-04-30T02:57:59.887Z,14.5
2018-04-30T02:59:01.323Z,14.5
2018-04-30T03:00:02.777Z,14.5
2018-04-30T03:01:04.216Z,14.6
2018-04-30T03:02:05.700Z,14.4
2018-04-30T03:03:07.146Z,14.5
2018-04-30T03:04:08.632Z,14.5
2018-04-30T03:05:10.053Z,14.5
2018-04-30T03:06:11.480Z,14.5
2018-04-30T03:07:12.955Z,14.5
2018-04-30T03:08:14.383Z,14.5
2018-04-30T03:09:15.814Z,14.5
2018-04-30T03:10:17.294Z,14.5
2018-04-30T03:11:18.698Z,14.4
2018-04-30T03:12:20.109Z,14.5
2018-04-30T03:13:21.528Z,14.5
2018-04-30T03:14:22.938Z,14.5
2018-04-30T03:15:24.359Z,14.4
2018-04-30T03:16:25.760Z,14.4
2018-04-30T03:17:27.161Z,14.5
2018-04-30T03:18:28.568Z,14.4
2018-04-30T03:19:29.964Z,14.5
2018-04-30T03:20:31.366Z,14.4
2018-04-30T03:21:32.765Z,14.5
2018-04-30T03:22:34.163Z,14.3
2018-04-30T03:23:35.568Z,14.4
2018-04-30T03:24:36.968Z,14.4
2018-04-30T03:25:38.375Z,14.3
2018-04-30T03:26:39.771Z,14.4
2018-04-30T03:27:41.164Z,14.4
2018-04-30T03:28:42.566Z,14.3
2018-04-30T03:29:43.976Z,14.4
2018-04-30T03:30:45.373Z,14.4
2018-04-30T03:31:46.777Z,14.3
2018-04-30T03:32:48.175Z,14.3
2018-04-30T03:33:49.584Z,14.3
2018-04-30T03:34:50.975Z,14.3
2018-04-30T03:35:52.381Z,14.3
2018-04-30T03:36:53.782Z,14.2
2018-04-30T03:37:55.199Z,14.2
2018-04-30T03:38:56.581Z,14.1
2018-04-30T03:39:57.982Z,14.2
2018-04-30T03:40:59.413Z,14.2
2018-04-30T03:42:00.800Z,14.2
2018-04-30T03:43:02.209Z,14.1
2018-04-30T03:44:03.624Z,14.2
2018-04-30T03:45:05.015Z,14.1
2018-04-30T03:46:06.415Z,14.2
2018-04-30T03:47:07.818Z,14.2
2018-04-30T03:48:09.222Z,14.3
2018-04-30T03:49:10.621Z,14.3
2018-04-30T03:50:12.025Z,14.2
2018-04-30T03:51:13.439Z,14.2
2018-04-30T03:52:14.847Z,14.2
2018-04-30T03:53:16.246Z,14.3
2018-04-30T03:54:17.652Z,14.2
2018-04-30T03:55:19.056Z,14.3
2018-04-30T03:56:20.733Z,14.3
2018-04-30T03:57:22.247Z,14.4
2018-04-30T03:58:23.752Z,14.4
2018-04-30T03:59:25.275Z,14.4
2018-04-30T04:00:26.741Z,14.4
2018-04-30T04:01:28.241Z,14.4
2018-04-30T04:02:29.747Z,14.4
2018-04-30T04:03:31.253Z,14.4
2018-04-30T04:04:32.747Z,14.4
2018-04-30T04:05:34.266Z,14.4
2018-04-30T04:06:36.525Z,14.4
2018-04-30T04:07:38.061Z,14.4
2018-04-30T04:08:39.606Z,14.4
2018-04-30T04:09:41.071Z,14.3
2018-04-30T04:10:42.613Z,14.3
2018-04-30T04:11:44.106Z,14.3
2018-04-30T04:12:45.587Z,14.3
2018-04-30T04:13:47.080Z,14.3
2018-04-30T04:14:48.576Z,14.3
2018-04-30T04:15:50.133Z,14.3
2018-04-30T04:16:51.626Z,14.4
2018-04-30T04:17:53.113Z,14.3
2018-04-30T04:18:54.669Z,14.3
2018-04-30T04:19:56.196Z,14.3
2018-04-30T04:20:57.691Z,14.3
2018-04-30T04:21:59.219Z,14.3
2018-04-30T04:23:00.664Z,14.3
2018-04-30T04:24:02.125Z,14.3
2018-04-30T04:25:03.635Z,14.3
2018-04-30T04:26:05.151Z,14.3
2018-04-30T04:27:06.598Z,14.3
2018-04-30T04:28:08.067Z,14.3
2018-04-30T04:29:09.579Z,14.3
2018-04-30T04:30:11.051Z,14.3
2018-04-30T04:31:12.588Z,14.1
2018-04-30T04:32:14.019Z,14.1
2018-04-30T04:33:15.533Z,14.2
2018-04-30T04:34:17.005Z,14.2
2018-04-30T04:35:18.472Z,14.2
2018-04-30T04:36:19.976Z,14.2
2018-04-30T04:37:21.467Z,14.2
2018-04-30T04:38:22.982Z,14.2
2018-04-30T04:39:24.441Z,14.1
2018-04-30T04:40:25.938Z,14.0
2018-04-30T04:41:27.522Z,14.0
2018-04-30T04:42:28.999Z,14.0
2018-04-30T04:43:30.454Z,14.0
2018-04-30T04:44:31.972Z,14.1
2018-04-30T04:45:33.498Z,14.2
2018-04-30T04:46:34.936Z,14.2
2018-04-30T04:47:36.431Z,14.2
2018-04-30T04:48:37.858Z,14.1
2018-04-30T04:49:39.263Z,14.2
2018-04-30T04:50:40.673Z,14.1
2018-04-30T04:51:42.085Z,14.1
2018-04-30T04:52:43.489Z,14.1
2018-04-30T04:53:44.905Z,14.1
2018-04-30T04:54:46.317Z,14.1
2018-04-30T04:55:47.733Z,14.1
2018-04-30T04:56:49.158Z,14.3
2018-04-30T04:57:50.597Z,14.3
2018-04-30T04:58:52.047Z,14.3
2018-04-30T04:59:53.482Z,14.4
2018-04-30T05:00:54.913Z,14.5
2018-04-30T05:01:56.318Z,14.5
2018-04-30T05:02:57.777Z,14.5
2018-04-30T05:03:59.260Z,14.6
2018-04-30T05:05:00.770Z,14.7
2018-04-30T05:06:02.285Z,14.8
2018-04-30T05:07:03.826Z,14.8
2018-04-30T05:08:05.279Z,14.9
2018-04-30T05:09:06.716Z,15.0
2018-04-30T05:10:08.140Z,15.0
2018-04-30T05:11:09.571Z,15.2
2018-04-30T05:12:10.984Z,15.1
2018-04-30T05:13:12.414Z,15.3
2018-04-30T05:14:13.827Z,15.4
2018-04-30T05:15:15.259Z,15.5
2018-04-30T05:16:16.689Z,15.5
2018-04-30T05:17:18.111Z,15.7
2018-04-30T05:18:19.562Z,15.8
2018-04-30T05:19:20.967Z,15.9
2018-04-30T05:20:22.373Z,15.9
2018-04-30T05:21:23.779Z,16.1
2018-04-30T05:22:25.229Z,16.2
2018-04-30T05:23:26.706Z,16.2
2018-04-30T05:24:28.123Z,16.3
2018-04-30T05:25:29.608Z,16.3
2018-04-30T05:26:31.030Z,16.3
2018-04-30T05:27:32.557Z,16.2
2018-04-30T05:28:34.008Z,16.2
2018-04-30T05:29:35.547Z,16.3
2018-04-30T05:30:37.039Z,16.2
2018-04-30T05:31:38.524Z,16.3
2018-04-30T05:32:40.017Z,16.5
2018-04-30T05:33:41.563Z,16.6
2018-04-30T05:34:43.113Z,16.6
2018-04-30T05:35:44.636Z,16.7
2018-04-30T05:36:46.168Z,16.7
2018-04-30T05:37:47.674Z,16.7
2018-04-30T05:38:49.178Z,16.9
2018-04-30T05:39:51.036Z,16.9
2018-04-30T05:40:52.479Z,17.0
2018-04-30T05:41:54.011Z,16.9
2018-04-30T05:42:55.535Z,16.9
2018-04-30T05:43:56.964Z,17.1
2018-04-30T05:44:58.728Z,17.0
2018-04-30T05:46:00.383Z,17.1
2018-04-30T05:47:02.164Z,17.1
2018-04-30T05:48:09.642Z,17.0
2018-04-30T05:49:11.011Z,17.1
2018-04-30T05:50:12.616Z,17.2
2018-04-30T05:51:14.842Z,17.3
2018-04-30T05:52:16.478Z,17.3
2018-04-30T05:53:18.478Z,17.4
2018-04-30T05:54:20.103Z,17.5
2018-04-30T05:55:21.631Z,17.4
2018-04-30T05:56:23.213Z,17.5
2018-04-30T05:57:24.860Z,17.5
2018-04-30T05:58:26.480Z,17.6
2018-04-30T05:59:28.084Z,17.7
2018-04-30T06:00:29.695Z,17.7
2018-04-30T06:01:31.258Z,17.8
2018-04-30T06:02:32.795Z,17.9
2018-04-30T06:03:34.400Z,17.9
2018-04-30T06:04:36.285Z,18.0
2018-04-30T06:05:37.904Z,18.1
2018-04-30T06:06:39.992Z,18.1
2018-04-30T06:07:41.568Z,18.1
2018-04-30T06:08:43.855Z,18.2
2018-04-30T06:09:48.102Z,18.4
2018-04-30T06:10:53.495Z,18.5
2018-04-30T06:11:55.909Z,18.6
2018-04-30T06:13:02.259Z,18.7
2018-04-30T06:14:07.901Z,18.8
2018-04-30T06:15:11.359Z,18.8
2018-04-30T06:16:13.204Z,18.8
2018-04-30T06:17:18.381Z,18.9
2018-04-30T06:18:23.543Z,19.0
2018-04-30T06:19:28.240Z,18.9
2018-04-30T06:20:35.427Z,18.9
2018-04-30T06:21:37.014Z,18.9
2018-04-30T06:22:39.689Z,18.9
2018-04-30T06:23:44.960Z,18.9
2018-04-30T06:24:46.610Z,18.9
2018-04-30T06:25:49.086Z,18.8
2018-04-30T06:26:50.788Z,19.0
2018-04-30T06:27:52.520Z,19.1
2018-04-30T06:28:54.330Z,18.9
2018-04-30T06:29:55.799Z,19.1
2018-04-30T06:30:57.386Z,19.0
2018-04-30T06:31:58.933Z,19.0
2018-04-30T06:33:00.551Z,19.0
2018-04-30T06:34:02.163Z,19.0
2018-04-30T06:35:03.755Z,18.9
2018-04-30T06:36:05.337Z,18.7
2018-04-30T06:37:06.843Z,18.8
2018-04-30T06:38:08.555Z,18.8
2018-04-30T06:39:10.186Z,18.6
2018-04-30T06:40:11.778Z,18.7
2018-04-30T06:41:13.367Z,18.4
2018-04-30T06:42:14.826Z,18.3
2018-04-30T06:43:16.390Z,18.3
2018-04-30T06:44:17.938Z,18.2
2018-04-30T06:45:19.702Z,18.2
2018-04-30T06:46:21.463Z,18.2
2018-04-30T06:47:22.970Z,18.1
2018-04-30T06:48:24.406Z,18.1
2018-04-30T06:49:26.000Z,18.2
2018-04-30T06:50:27.618Z,18.1
2018-04-30T06:51:30.339Z,18.2
2018-04-30T06:52:31.841Z,18.2
2018-04-30T06:53:33.633Z,18.2
2018-04-30T06:54:35.297Z,18.2
2018-04-30T06:55:36.860Z,18.3
2018-04-30T06:56:38.728Z,18.3
2018-04-30T06:57:40.254Z,18.4
2018-04-30T06:58:41.800Z,18.5
2018-04-30T06:59:43.496Z,18.5
2018-04-30T07:00:45.041Z,18.7
2018-04-30T07:01:46.583Z,18.9
2018-04-30T07:02:48.209Z,18.9
2018-04-30T07:03:49.761Z,18.9
2018-04-30T07:04:51.340Z,19.0
2018-04-30T07:05:53.246Z,19.0
2018-04-30T07:06:54.665Z,19.1
2018-04-30T07:07:56.244Z,19.1
2018-04-30T07:08:57.759Z,19.1
2018-04-30T07:09:59.292Z,19.0
2018-04-30T07:11:00.989Z,19.0
2018-04-30T07:12:03.353Z,18.9
2018-04-30T07:13:05.069Z,19.0
2018-04-30T07:14:07.174Z,18.8
2018-04-30T07:15:08.673Z,18.7
2018-04-30T07:16:10.186Z,18.6
2018-04-30T07:17:11.680Z,18.4
2018-04-30T07:18:13.238Z,18.3
2018-04-30T07:19:14.723Z,18.3
2018-04-30T07:20:16.232Z,18.1
2018-04-30T07:21:17.788Z,18.1
2018-04-30T07:22:19.265Z,18.2
2018-04-30T07:23:20.798Z,18.1
2018-04-30T07:24:22.260Z,18.1
2018-04-30T07:25:23.885Z,18.1
2018-04-30T07:26:25.364Z,18.1
2018-04-30T07:27:26.930Z,18.0
2018-04-30T07:28:28.395Z,18.1
2018-04-30T07:29:29.930Z,18.2
2018-04-30T07:30:31.452Z,18.2
2018-04-30T07:31:33.090Z,18.1
2018-04-30T07:32:34.562Z,18.1
2018-04-30T07:33:36.063Z,18.0
2018-04-30T07:34:37.544Z,18.1
2018-04-30T07:35:39.065Z,18.2
2018-04-30T07:36:40.583Z,18.1
2018-04-30T07:37:42.095Z,18.3
2018-04-30T07:38:43.571Z,18.2
2018-04-30T07:39:45.007Z,18.2
2018-04-30T07:40:46.492Z,18.2
2018-04-30T07:41:47.954Z,18.2
2018-04-30T07:42:49.463Z,18.1
2018-04-30T07:43:50.965Z,18.1
2018-04-30T07:44:52.430Z,18.1
2018-04-30T07:45:53.928Z,17.9
2018-04-30T07:46:55.411Z,17.9
2018-04-30T07:47:56.926Z,17.8
2018-04-30T07:48:58.389Z,17.8
2018-04-30T07:49:59.853Z,17.8
2018-04-30T07:51:01.476Z,17.9
2018-04-30T07:52:02.950Z,17.9
2018-04-30T07:53:04.413Z,17.8
2018-04-30T07:54:05.839Z,17.8
2018-04-30T07:55:07.302Z,17.9
2018-04-30T07:56:08.780Z,17.8
2018-04-30T07:57:10.276Z,17.9
2018-04-30T07:58:11.767Z,17.9
2018-04-30T07:59:13.228Z,18.2
2018-04-30T08:00:14.664Z,18.1
2018-04-30T08:01:16.166Z,18.2
2018-04-30T08:02:17.604Z,18.4
2018-04-30T08:03:19.067Z,18.5
2018-04-30T08:04:20.502Z,18.5
2018-04-30T08:05:21.910Z,18.6
2018-04-30T08:06:23.340Z,18.6
2018-04-30T08:07:24.802Z,18.6
2018-04-30T08:08:26.321Z,18.7
2018-04-30T08:09:27.882Z,18.7
2018-04-30T08:10:29.340Z,18.6
2018-04-30T08:11:30.859Z,18.6
2018-04-30T08:12:32.352Z,18.5
2018-04-30T08:13:33.883Z,18.3
2018-04-30T08:14:35.350Z,18.4
2018-04-30T08:15:36.863Z,18.3
2018-04-30T08:16:38.389Z,18.2
2018-04-30T08:17:39.838Z,18.3
2018-04-30T08:18:41.317Z,18.1
2018-04-30T08:19:42.819Z,18.2
2018-04-30T08:20:44.298Z,18.2
2018-04-30T08:21:45.787Z,18.1
2018-04-30T08:22:47.300Z,18.1
2018-04-30T08:23:48.837Z,18.1
2018-04-30T08:24:50.298Z,18.3
2018-04-30T08:25:51.763Z,18.2
2018-04-30T08:26:53.222Z,18.2
2018-04-30T08:27:54.682Z,18.2
2018-04-30T08:28:56.176Z,18.1
2018-04-30T08:29:57.645Z,18.1
2018-04-30T08:30:59.226Z,18.1
2018-04-30T08:32:00.677Z,18.0
2018-04-30T08:33:02.128Z,18.1
2018-04-30T08:34:03.581Z,17.9
2018-04-30T08:35:05.073Z,17.9
2018-04-30T08:36:06.554Z,18.0
2018-04-30T08:37:08.004Z,18.0
2018-04-30T08:38:09.483Z,18.1
2018-04-30T08:39:10.930Z,18.3
2018-04-30T08:40:12.391Z,18.3
2018-04-30T08:41:13.867Z,18.4
2018-04-30T08:42:15.359Z,18.3
2018-04-30T08:43:16.869Z,18.5
2018-04-30T08:44:18.292Z,18.5
2018-04-30T08:45:19.757Z,18.8
2018-04-30T08:46:21.261Z,18.6
2018-04-30T08:47:22.737Z,18.6
2018-04-30T08:48:24.155Z,18.7
2018-04-30T08:49:25.600Z,18.7
2018-04-30T08:50:27.099Z,18.9
2018-04-30T08:51:28.593Z,18.8
2018-04-30T08:52:30.027Z,18.9
2018-04-30T08:53:31.489Z,19.0
2018-04-30T08:54:32.968Z,19.5
2018-04-30T08:55:34.488Z,19.8
2018-04-30T08:56:35.945Z,19.8
2018-04-30T08:57:37.378Z,19.7
2018-04-30T08:58:38.851Z,19.9
2018-04-30T08:59:40.370Z,20.6
2018-04-30T09:00:41.931Z,20.7
2018-04-30T09:01:43.327Z,20.9
2018-04-30T09:02:44.783Z,20.4
2018-04-30T09:03:46.197Z,20.6
2018-04-30T09:04:47.602Z,21.4
2018-04-30T09:05:49.018Z,21.9
2018-04-30T09:06:50.419Z,21.5
2018-04-30T09:07:51.842Z,21.8
2018-04-30T09:08:53.260Z,21.1
2018-04-30T09:09:54.676Z,21.2
2018-04-30T09:10:56.090Z,20.7
2018-04-30T09:11:57.506Z,20.6
2018-04-30T09:12:58.911Z,20.2
2018-04-30T09:14:00.325Z,20.2
2018-04-30T09:15:01.737Z,20.5
2018-04-30T09:16:03.144Z,20.0
2018-04-30T09:17:04.555Z,19.8
2018-04-30T09:18:05.970Z,19.8
2018-04-30T09:19:07.394Z,19.7
2018-04-30T09:20:08.800Z,19.9
2018-04-30T09:21:10.207Z,19.9
2018-04-30T09:22:11.617Z,20.0
2018-04-30T09:23:13.028Z,19.7
2018-04-30T09:24:14.439Z,19.8
2018-04-30T09:25:15.873Z,19.6
2018-04-30T09:26:17.272Z,19.6
2018-04-30T09:27:18.682Z,19.7
2018-04-30T09:28:20.089Z,19.2
2018-04-30T09:29:21.498Z,19.3
2018-04-30T09:30:22.906Z,19.5
2018-04-30T09:31:24.320Z,19.6
2018-04-30T09:32:25.732Z,19.7
2018-04-30T09:33:27.135Z,19.7
2018-04-30T09:34:28.544Z,19.7
2018-04-30T09:35:29.959Z,19.7
2018-04-30T09:36:31.374Z,19.8
2018-04-30T09:37:32.782Z,19.7
2018-04-30T09:38:34.187Z,19.7
2018-04-30T09:39:35.604Z,19.2
2018-04-30T09:40:37.011Z,19.1
2018-04-30T09:41:38.416Z,19.1
2018-04-30T09:42:39.827Z,19.0
2018-04-30T09:43:41.243Z,19.1
2018-04-30T09:44:42.661Z,19.1
2018-04-30T09:45:44.071Z,18.9
2018-04-30T09:46:45.484Z,19.1
2018-04-30T09:47:46.890Z,19.1
2018-04-30T09:48:48.297Z,19.1
2018-04-30T09:49:49.708Z,19.2
2018-04-30T09:50:51.119Z,19.0
2018-04-30T09:51:52.527Z,19.6
2018-04-30T09:52:53.936Z,19.9
2018-04-30T09:53:55.348Z,19.8
2018-04-30T09:54:56.771Z,19.4
2018-04-30T09:55:58.179Z,19.3
2018-04-30T09:56:59.588Z,19.1
2018-04-30T09:58:01.080Z,18.9
2018-04-30T09:59:02.410Z,18.8
2018-04-30T10:00:03.818Z,18.5
2018-04-30T10:01:05.231Z,18.4
2018-04-30T10:02:06.637Z,18.3
2018-04-30T10:03:08.048Z,18.3
2018-04-30T10:04:09.449Z,18.2
2018-04-30T10:05:10.863Z,18.1
2018-04-30T10:06:12.272Z,18.1
2018-04-30T10:07:13.699Z,18.0
2018-04-30T10:08:15.101Z,18.1
2018-04-30T10:09:16.505Z,18.1
2018-04-30T10:10:17.921Z,18.1
2018-04-30T10:11:19.329Z,18.2
2018-04-30T10:12:20.783Z,18.1
2018-04-30T10:13:22.192Z,18.1
2018-04-30T10:14:23.606Z,18.2
2018-04-30T10:15:25.015Z,18.4
2018-04-30T10:16:26.423Z,18.8
2018-04-30T10:17:27.833Z,19.1
2018-04-30T10:18:29.236Z,19.5
2018-04-30T10:19:30.644Z,19.9
2018-04-30T10:20:32.057Z,20.6
2018-04-30T10:21:33.465Z,20.7
2018-04-30T10:22:34.916Z,20.8
2018-04-30T10:23:36.422Z,21.1
2018-04-30T10:24:37.763Z,21.7
2018-04-30T10:25:39.175Z,21.5
2018-04-30T10:26:40.586Z,21.3
2018-04-30T10:27:41.995Z,21.4
2018-04-30T10:28:43.406Z,21.6
2018-04-30T10:29:44.830Z,21.5
2018-04-30T10:30:46.233Z,21.4
2018-04-30T10:31:47.647Z,22.2
2018-04-30T10:32:49.059Z,22.1
2018-04-30T10:33:50.465Z,22.0
2018-04-30T10:34:51.880Z,22.0
2018-04-30T10:35:53.287Z,21.4
2018-04-30T10:36:54.703Z,21.3
2018-04-30T10:37:56.214Z,22.5
2018-04-30T10:38:57.521Z,22.8
2018-04-30T10:39:58.932Z,22.8
2018-04-30T10:41:00.345Z,22.8
2018-04-30T10:42:01.756Z,22.7
2018-04-30T10:43:03.176Z,22.6
2018-04-30T10:44:04.587Z,21.9
2018-04-30T10:45:06.002Z,21.2
2018-04-30T10:46:07.456Z,22.1
2018-04-30T10:47:08.812Z,22.3
2018-04-30T10:48:10.228Z,22.4
2018-04-30T10:49:11.650Z,22.5
2018-04-30T10:50:13.061Z,22.4
2018-04-30T10:51:14.471Z,23.7
2018-04-30T10:52:15.887Z,23.6
2018-04-30T10:53:17.298Z,22.9
2018-04-30T10:54:18.720Z,21.9
2018-04-30T10:55:20.160Z,21.1
2018-04-30T10:56:21.570Z,20.7
2018-04-30T10:57:22.985Z,20.5
2018-04-30T10:58:24.408Z,20.6
2018-04-30T10:59:25.814Z,20.5
2018-04-30T11:00:27.225Z,20.8
2018-04-30T11:01:28.636Z,20.9
2018-04-30T11:02:30.047Z,20.6
2018-04-30T11:03:31.459Z,20.3
2018-04-30T11:04:32.872Z,20.0
2018-04-30T11:05:34.285Z,20.1
2018-04-30T11:06:35.741Z,19.9
2018-04-30T11:07:37.159Z,21.0
2018-04-30T11:08:38.565Z,22.7
2018-04-30T11:09:39.968Z,24.2
2018-04-30T11:10:41.387Z,22.5
2018-04-30T11:11:42.803Z,22.1
2018-04-30T11:12:44.214Z,21.7
2018-04-30T11:13:45.636Z,21.5
2018-04-30T11:14:47.036Z,22.0
2018-04-30T11:15:48.455Z,22.1
2018-04-30T11:16:49.866Z,23.9
2018-04-30T11:17:51.281Z,23.6
2018-04-30T11:18:52.697Z,22.8
2018-04-30T11:19:54.121Z,22.7
2018-04-30T11:20:55.534Z,21.8
2018-04-30T11:21:56.942Z,22.8
2018-04-30T11:22:58.360Z,23.0
2018-04-30T11:23:59.777Z,23.8
2018-04-30T11:25:01.193Z,24.4
2018-04-30T11:26:02.612Z,23.6
2018-04-30T11:27:04.029Z,22.8
2018-04-30T11:28:05.442Z,22.6
2018-04-30T11:29:06.858Z,22.6
2018-04-30T11:30:08.268Z,22.2
2018-04-30T11:31:09.688Z,23.0
2018-04-30T11:32:11.107Z,23.8
2018-04-30T11:33:12.517Z,25.9
2018-04-30T11:34:14.014Z,24.9
2018-04-30T11:35:15.351Z,25.8
2018-04-30T11:36:16.763Z,25.6
2018-04-30T11:37:18.181Z,25.3
2018-04-30T11:38:19.600Z,24.1
2018-04-30T11:39:21.017Z,23.7
2018-04-30T11:40:22.435Z,23.9
2018-04-30T11:41:23.858Z,23.8
2018-04-30T11:42:25.273Z,23.6
2018-04-30T11:43:26.695Z,24.1
2018-04-30T11:44:28.111Z,25.2
2018-04-30T11:45:29.537Z,25.5
2018-04-30T11:46:30.954Z,25.1
2018-04-30T11:47:32.375Z,24.7
2018-04-30T11:48:33.912Z,25.3
2018-04-30T11:49:35.350Z,25.9
2018-04-30T11:50:36.764Z,26.2
2018-04-30T11:51:38.186Z,26.2
2018-04-30T11:52:39.610Z,25.5
2018-04-30T11:53:41.021Z,25.3
2018-04-30T11:54:42.438Z,25.9
2018-04-30T11:55:43.854Z,25.2
2018-04-30T11:56:45.274Z,25.5
2018-04-30T11:57:46.693Z,26.1
2018-04-30T11:58:48.138Z,26.8
2018-04-30T11:59:49.533Z,26.5
2018-04-30T12:00:50.969Z,26.0
2018-04-30T12:01:52.390Z,26.3
2018-04-30T12:02:54.570Z,25.1
2018-04-30T12:03:56.065Z,24.2
2018-04-30T12:04:57.641Z,24.3
2018-04-30T12:05:59.106Z,24.0
2018-04-30T12:07:01.425Z,23.8
2018-04-30T12:08:03.274Z,23.3
2018-04-30T12:09:04.698Z,23.4
2018-04-30T12:10:06.115Z,23.8
2018-04-30T12:11:07.553Z,24.2
2018-04-30T12:12:08.959Z,24.9
2018-04-30T12:13:10.380Z,25.5
2018-04-30T12:14:11.796Z,26.9
2018-04-30T12:15:13.217Z,27.2
2018-04-30T12:16:14.638Z,26.3
2018-04-30T12:17:16.059Z,26.2
2018-04-30T12:18:17.478Z,26.8
2018-04-30T12:19:18.902Z,25.6
2018-04-30T12:20:21.316Z,25.4
2018-04-30T12:21:22.806Z,25.8
2018-04-30T12:22:24.157Z,26.6
2018-04-30T12:23:25.583Z,26.1
2018-04-30T12:24:27.004Z,27.0
2018-04-30T12:25:28.426Z,27.0
2018-04-30T12:26:29.852Z,26.3
2018-04-30T12:27:31.274Z,26.1
2018-04-30T12:28:32.697Z,25.8
2018-04-30T12:29:34.132Z,25.6
2018-04-30T12:30:35.551Z,26.2
2018-04-30T12:31:36.984Z,26.3
2018-04-30T12:32:38.401Z,26.7
2018-04-30T12:33:39.822Z,26.0
2018-04-30T12:34:42.180Z,26.3
2018-04-30T12:35:43.605Z,26.8
2018-04-30T12:36:45.030Z,26.2
2018-04-30T12:37:46.450Z,26.2
2018-04-30T12:38:47.877Z,27.1
2018-04-30T12:39:49.296Z,27.3
2018-04-30T12:40:50.716Z,27.2
2018-04-30T12:41:52.136Z,26.6
2018-04-30T12:42:53.556Z,25.9
2018-04-30T12:43:54.979Z,26.2
2018-04-30T12:44:56.403Z,25.8
2018-04-30T12:45:57.824Z,24.8
2018-04-30T12:46:59.442Z,24.2
2018-04-30T12:48:00.932Z,24.5
2018-04-30T12:49:02.433Z,23.1
2018-04-30T12:50:03.868Z,23.2
2018-04-30T12:51:05.308Z,23.8
2018-04-30T12:52:06.744Z,25.1
2018-04-30T12:53:08.173Z,25.1
2018-04-30T12:54:09.791Z,26.0
2018-04-30T12:55:11.150Z,24.4
2018-04-30T12:56:12.596Z,25.4
2018-04-30T12:57:14.021Z,26.5
2018-04-30T12:58:15.446Z,26.8
2018-04-30T12:59:17.445Z,25.6
2018-04-30T13:00:18.985Z,26.3
2018-04-30T13:01:20.450Z,25.3
2018-04-30T13:02:21.937Z,24.6
2018-04-30T13:03:23.368Z,25.7
2018-04-30T13:04:24.802Z,26.0
2018-04-30T13:05:26.286Z,26.3
2018-04-30T13:06:27.816Z,25.8
2018-04-30T13:07:29.371Z,25.6
2018-04-30T13:08:30.875Z,24.0
2018-04-30T13:09:32.431Z,25.8
2018-04-30T13:10:33.977Z,25.7
2018-04-30T13:11:35.466Z,23.7
2018-04-30T13:12:36.993Z,23.7
2018-04-30T13:13:38.552Z,24.7
2018-04-30T13:14:40.080Z,24.9
2018-04-30T13:15:41.556Z,25.1
2018-04-30T13:16:43.060Z,25.1
2018-04-30T13:17:44.545Z,23.6
2018-04-30T13:18:46.071Z,24.4
2018-04-30T13:19:47.595Z,22.7
2018-04-30T13:20:49.131Z,21.9
2018-04-30T13:21:50.680Z,22.5
2018-04-30T13:22:52.157Z,22.5
2018-04-30T13:23:53.663Z,21.4
2018-04-30T13:24:55.146Z,21.7
2018-04-30T13:25:56.682Z,23.9
2018-04-30T13:26:58.146Z,25.2
2018-04-30T13:27:59.661Z,25.5
2018-04-30T13:29:01.164Z,25.9
2018-04-30T13:30:02.742Z,26.0
2018-04-30T13:31:04.247Z,26.4
2018-04-30T13:32:05.767Z,27.5
2018-04-30T13:33:07.242Z,27.6
2018-04-30T13:34:08.761Z,28.1
2018-04-30T13:35:10.260Z,28.4
2018-04-30T13:36:11.831Z,28.0
2018-04-30T13:37:13.349Z,27.6
2018-04-30T13:38:14.786Z,26.6
2018-04-30T13:39:16.306Z,25.7